sensor_id;sensor_type;location;lat;lon;timestamp;pressure;altitude;pressure_sealevel;temperature;humidity
63204;BME280;49297;43.210;27.914;2023-06-14T00:02:17;100763.50;;;20.24;59.74
63204;BME280;49297;43.210;27.914;2023-06-14T00:04:45;100757.91;;;20.25;59.80
63204;BME280;49297;43.210;27.914;2023-06-14T00:07:11;100741.59;;;20.27;59.78
63204;BME280;49297;43.210;27.914;2023-06-14T00:09:39;100756.25;;;20.24;59.45
63204;BME280;49297;43.210;27.914;2023-06-14T00:12:05;100746.97;;;20.27;59.64
63204;BME280;49297;43.210;27.914;2023-06-14T00:14:31;100742.03;;;20.30;59.52
63204;BME280;49297;43.210;27.914;2023-06-14T00:16:57;100743.91;;;20.37;59.60
63204;BME280;49297;43.210;27.914;2023-06-14T00:19:25;100743.09;;;20.43;59.53
63204;BME280;49297;43.210;27.914;2023-06-14T00:21:51;100738.34;;;20.45;59.14
63204;BME280;49297;43.210;27.914;2023-06-14T00:24:18;100746.84;;;20.48;59.12
63204;BME280;49297;43.210;27.914;2023-06-14T00:26:44;100742.91;;;20.51;59.02
63204;BME280;49297;43.210;27.914;2023-06-14T00:29:10;100745.78;;;20.49;59.03
63204;BME280;49297;43.210;27.914;2023-06-14T00:31:36;100739.41;;;20.50;59.07
63204;BME280;49297;43.210;27.914;2023-06-14T00:34:02;100748.91;;;20.53;59.07
63204;BME280;49297;43.210;27.914;2023-06-14T00:36:28;100745.59;;;20.51;59.13
63204;BME280;49297;43.210;27.914;2023-06-14T00:38:54;100751.59;;;20.46;59.37
63204;BME280;49297;43.210;27.914;2023-06-14T00:41:20;100751.59;;;20.46;59.57
63204;BME280;49297;43.210;27.914;2023-06-14T00:43:46;100759.44;;;20.48;59.79
63204;BME280;49297;43.210;27.914;2023-06-14T00:46:13;100759.22;;;20.49;59.46
63204;BME280;49297;43.210;27.914;2023-06-14T00:48:39;100754.69;;;20.43;59.80
63204;BME280;49297;43.210;27.914;2023-06-14T00:51:07;100754.47;;;20.45;60.15
63204;BME280;49297;43.210;27.914;2023-06-14T00:53:33;100761.69;;;20.44;59.77
63204;BME280;49297;43.210;27.914;2023-06-14T00:56:01;100764.38;;;20.44;59.67
63204;BME280;49297;43.210;27.914;2023-06-14T00:58:27;100763.75;;;20.42;59.84
63204;BME280;49297;43.210;27.914;2023-06-14T01:00:54;100754.88;;;20.42;59.56
63204;BME280;49297;43.210;27.914;2023-06-14T01:03:20;100759.84;;;20.45;59.39
63204;BME280;49297;43.210;27.914;2023-06-14T01:05:53;100758.63;;;20.47;59.35
63204;BME280;49297;43.210;27.914;2023-06-14T01:08:51;100764.81;;;20.48;58.99
63204;BME280;49297;43.210;27.914;2023-06-14T01:11:30;100765.47;;;20.50;59.15
63204;BME280;49297;43.210;27.914;2023-06-14T01:13:59;100758.81;;;20.46;59.66
63204;BME280;49297;43.210;27.914;2023-06-14T01:16:29;100759.63;;;20.40;60.45
63204;BME280;49297;43.210;27.914;2023-06-14T01:18:55;100754.84;;;20.35;60.64
63204;BME280;49297;43.210;27.914;2023-06-14T01:21:24;100756.09;;;20.32;60.62
63204;BME280;49297;43.210;27.914;2023-06-14T01:23:51;100753.59;;;20.31;60.52
63204;BME280;49297;43.210;27.914;2023-06-14T01:26:27;100751.94;;;20.30;60.51
63204;BME280;49297;43.210;27.914;2023-06-14T01:28:54;100746.97;;;20.27;61.16
63204;BME280;49297;43.210;27.914;2023-06-14T01:31:24;100758.31;;;20.22;61.68
63204;BME280;49297;43.210;27.914;2023-06-14T01:33:52;100758.28;;;20.15;62.04
63204;BME280;49297;43.210;27.914;2023-06-14T01:36:19;100751.66;;;20.11;62.36
63204;BME280;49297;43.210;27.914;2023-06-14T01:38:47;100746.47;;;20.10;62.17
63204;BME280;49297;43.210;27.914;2023-06-14T01:41:16;100752.03;;;20.08;62.17
63204;BME280;49297;43.210;27.914;2023-06-14T01:43:43;100749.75;;;20.05;62.03
63204;BME280;49297;43.210;27.914;2023-06-14T01:46:11;100756.16;;;20.04;62.02
63204;BME280;49297;43.210;27.914;2023-06-14T01:48:38;100752.84;;;20.02;62.13
63204;BME280;49297;43.210;27.914;2023-06-14T01:51:04;100750.97;;;20.03;61.57
63204;BME280;49297;43.210;27.914;2023-06-14T01:53:30;100743.88;;;19.88;61.93
63204;BME280;49297;43.210;27.914;2023-06-14T01:55:58;100746.34;;;19.83;61.89
63204;BME280;49297;43.210;27.914;2023-06-14T01:58:24;100758.13;;;19.82;61.68
63204;BME280;49297;43.210;27.914;2023-06-14T02:00:52;100750.63;;;19.77;61.59
63204;BME280;49297;43.210;27.914;2023-06-14T02:03:21;100753.88;;;19.73;61.96
63204;BME280;49297;43.210;27.914;2023-06-14T02:05:46;100746.00;;;19.71;61.99
63204;BME280;49297;43.210;27.914;2023-06-14T02:08:12;100751.59;;;19.70;63.01
63204;BME280;49297;43.210;27.914;2023-06-14T02:10:39;100747.00;;;19.64;63.18
63204;BME280;49297;43.210;27.914;2023-06-14T02:13:06;100751.69;;;19.55;64.06
63204;BME280;49297;43.210;27.914;2023-06-14T02:15:43;100756.56;;;19.45;64.64
63204;BME280;49297;43.210;27.914;2023-06-14T02:18:15;100750.97;;;19.39;65.06
63204;BME280;49297;43.210;27.914;2023-06-14T02:20:41;100750.13;;;19.39;64.96
63204;BME280;49297;43.210;27.914;2023-06-14T02:23:07;100747.44;;;19.39;64.50
63204;BME280;49297;43.210;27.914;2023-06-14T02:25:34;100749.94;;;19.40;64.29
63204;BME280;49297;43.210;27.914;2023-06-14T02:28:00;100757.16;;;19.40;63.90
63204;BME280;49297;43.210;27.914;2023-06-14T02:30:27;100755.50;;;19.39;64.15
63204;BME280;49297;43.210;27.914;2023-06-14T02:32:53;100766.03;;;19.40;64.25
63204;BME280;49297;43.210;27.914;2023-06-14T02:35:19;100767.53;;;19.43;64.34
63204;BME280;49297;43.210;27.914;2023-06-14T02:37:46;100770.59;;;19.40;64.53
63204;BME280;49297;43.210;27.914;2023-06-14T02:40:12;100772.22;;;19.41;64.54
63204;BME280;49297;43.210;27.914;2023-06-14T02:42:38;100772.22;;;19.41;64.96
63204;BME280;49297;43.210;27.914;2023-06-14T02:45:04;100779.09;;;19.44;65.10
63204;BME280;49297;43.210;27.914;2023-06-14T02:47:30;100771.03;;;19.44;65.23
63204;BME280;49297;43.210;27.914;2023-06-14T02:49:55;100771.03;;;19.44;65.42
63204;BME280;49297;43.210;27.914;2023-06-14T02:52:21;100771.84;;;19.44;64.97
63204;BME280;49297;43.210;27.914;2023-06-14T02:54:47;100766.28;;;19.46;64.75
63204;BME280;49297;43.210;27.914;2023-06-14T02:57:13;100782.41;;;19.46;64.54
63204;BME280;49297;43.210;27.914;2023-06-14T02:59:40;100777.22;;;19.44;64.12
63204;BME280;49297;43.210;27.914;2023-06-14T03:02:06;100776.41;;;19.44;63.83
63204;BME280;49297;43.210;27.914;2023-06-14T03:04:32;100780.53;;;19.46;63.76
63204;BME280;49297;43.210;27.914;2023-06-14T03:07:03;100775.34;;;19.45;63.24
63204;BME280;49297;43.210;27.914;2023-06-14T03:09:36;100778.03;;;19.45;62.86
63204;BME280;49297;43.210;27.914;2023-06-14T03:12:06;100774.16;;;19.47;62.73
63204;BME280;49297;43.210;27.914;2023-06-14T03:14:38;100783.84;;;19.48;62.36
63204;BME280;49297;43.210;27.914;2023-06-14T03:17:05;100782.66;;;19.51;62.58
63204;BME280;49297;43.210;27.914;2023-06-14T03:19:30;100788.84;;;19.51;62.62
63204;BME280;49297;43.210;27.914;2023-06-14T03:21:56;100793.00;;;19.54;62.88
63204;BME280;49297;43.210;27.914;2023-06-14T03:24:26;100793.63;;;19.56;63.01
63204;BME280;49297;43.210;27.914;2023-06-14T03:26:53;100793.25;;;19.59;63.08
63204;BME280;49297;43.210;27.914;2023-06-14T03:29:21;100788.72;;;19.59;62.84
63204;BME280;49297;43.210;27.914;2023-06-14T03:32:02;100795.28;;;19.57;62.48
63204;BME280;49297;43.210;27.914;2023-06-14T03:34:28;100788.06;;;19.57;62.54
63204;BME280;49297;43.210;27.914;2023-06-14T03:36:54;100782.09;;;19.62;62.20
63204;BME280;49297;43.210;27.914;2023-06-14T03:39:24;100790.78;;;19.64;62.28
63204;BME280;49297;43.210;27.914;2023-06-14T03:41:49;100796.59;;;19.68;62.27
63204;BME280;49297;43.210;27.914;2023-06-14T03:44:18;100782.59;;;19.72;62.31
63204;BME280;49297;43.210;27.914;2023-06-14T03:46:46;100794.81;;;19.75;61.62
63204;BME280;49297;43.210;27.914;2023-06-14T03:49:13;100796.03;;;19.72;62.12
63204;BME280;49297;43.210;27.914;2023-06-14T03:51:40;100794.16;;;19.73;62.67
63204;BME280;49297;43.210;27.914;2023-06-14T03:54:06;100795.66;;;19.75;62.64
63204;BME280;49297;43.210;27.914;2023-06-14T03:56:33;100795.47;;;19.77;63.07
63204;BME280;49297;43.210;27.914;2023-06-14T03:59:00;100799.00;;;19.77;63.53
63204;BME280;49297;43.210;27.914;2023-06-14T04:01:28;100798.59;;;19.81;63.72
63204;BME280;49297;43.210;27.914;2023-06-14T04:03:56;100793.03;;;19.82;63.69
63204;BME280;49297;43.210;27.914;2023-06-14T04:06:23;100793.47;;;19.86;63.42
63204;BME280;49297;43.210;27.914;2023-06-14T04:08:51;100795.94;;;19.87;63.13
63204;BME280;49297;43.210;27.914;2023-06-14T04:11:18;100801.13;;;19.89;62.70
63204;BME280;49297;43.210;27.914;2023-06-14T04:13:44;100799.72;;;19.93;63.24
63204;BME280;49297;43.210;27.914;2023-06-14T04:16:10;100799.31;;;19.96;63.60
63204;BME280;49297;43.210;27.914;2023-06-14T04:18:36;100799.53;;;20.01;63.85
63204;BME280;49297;43.210;27.914;2023-06-14T04:21:02;100817.78;;;20.06;63.88
63204;BME280;49297;43.210;27.914;2023-06-14T04:23:29;100806.41;;;20.10;63.63
63204;BME280;49297;43.210;27.914;2023-06-14T04:25:57;100807.06;;;20.12;63.54
63204;BME280;49297;43.210;27.914;2023-06-14T04:28:28;100802.13;;;20.16;63.16
63204;BME280;49297;43.210;27.914;2023-06-14T04:30:54;100801.91;;;20.17;63.45
63204;BME280;49297;43.210;27.914;2023-06-14T04:33:20;100817.63;;;20.21;63.39
63204;BME280;49297;43.210;27.914;2023-06-14T04:35:46;100824.06;;;20.26;62.96
63204;BME280;49297;43.210;27.914;2023-06-14T04:38:19;100820.59;;;20.32;62.26
63204;BME280;49297;43.210;27.914;2023-06-14T04:40:50;100828.66;;;20.32;62.21
63204;BME280;49297;43.210;27.914;2023-06-14T04:43:18;100839.66;;;20.38;61.90
63204;BME280;49297;43.210;27.914;2023-06-14T04:45:52;100840.09;;;20.41;61.89
63204;BME280;49297;43.210;27.914;2023-06-14T04:48:21;100842.16;;;20.46;62.28
63204;BME280;49297;43.210;27.914;2023-06-14T04:50:47;100843.03;;;20.53;61.68
63204;BME280;49297;43.210;27.914;2023-06-14T04:53:12;100854.00;;;20.58;61.13
63204;BME280;49297;43.210;27.914;2023-06-14T04:55:40;100844.72;;;20.61;61.22
63204;BME280;49297;43.210;27.914;2023-06-14T04:58:10;100858.03;;;20.69;61.25
63204;BME280;49297;43.210;27.914;2023-06-14T05:00:38;100856.38;;;20.75;60.96
63204;BME280;49297;43.210;27.914;2023-06-14T05:03:05;100855.53;;;20.67;60.94
63204;BME280;49297;43.210;27.914;2023-06-14T05:05:33;100860.31;;;20.72;60.73
63204;BME280;49297;43.210;27.914;2023-06-14T05:08:01;100859.28;;;20.80;61.12
63204;BME280;49297;43.210;27.914;2023-06-14T05:10:26;100852.50;;;20.90;61.23
63204;BME280;49297;43.210;27.914;2023-06-14T05:12:52;100847.78;;;20.99;60.95
63204;BME280;49297;43.210;27.914;2023-06-14T05:15:19;100850.91;;;21.09;61.07
63204;BME280;49297;43.210;27.914;2023-06-14T05:17:46;100862.91;;;21.14;60.31
63204;BME280;49297;43.210;27.914;2023-06-14T05:20:18;100856.50;;;21.08;60.18
63204;BME280;49297;43.210;27.914;2023-06-14T05:22:45;100860.03;;;21.15;60.35
63204;BME280;49297;43.210;27.914;2023-06-14T05:25:12;100858.78;;;21.24;60.57
63204;BME280;49297;43.210;27.914;2023-06-14T05:27:39;100862.94;;;21.34;59.53
63204;BME280;49297;43.210;27.914;2023-06-14T05:30:08;100864.41;;;21.36;59.41
63204;BME280;49297;43.210;27.914;2023-06-14T05:32:34;100873.31;;;21.43;59.26
63204;BME280;49297;43.210;27.914;2023-06-14T05:35:00;100872.94;;;21.53;59.30
63204;BME280;49297;43.210;27.914;2023-06-14T05:37:26;100874.22;;;21.57;59.17
63204;BME280;49297;43.210;27.914;2023-06-14T05:39:51;100878.75;;;21.50;59.79
63204;BME280;49297;43.210;27.914;2023-06-14T05:42:17;100882.06;;;21.45;59.54
63204;BME280;49297;43.210;27.914;2023-06-14T05:44:49;100883.06;;;21.44;59.97
63204;BME280;49297;43.210;27.914;2023-06-14T05:47:16;100881.66;;;21.48;59.57
63204;BME280;49297;43.210;27.914;2023-06-14T05:49:42;100886.19;;;21.55;59.52
63204;BME280;49297;43.210;27.914;2023-06-14T05:52:09;100876.69;;;21.65;59.59
63204;BME280;49297;43.210;27.914;2023-06-14T05:54:35;100887.47;;;21.79;59.29
63204;BME280;49297;43.210;27.914;2023-06-14T05:57:01;100889.72;;;21.89;59.29
63204;BME280;49297;43.210;27.914;2023-06-14T05:59:29;100888.50;;;21.98;58.78
63204;BME280;49297;43.210;27.914;2023-06-14T06:01:55;100895.34;;;22.07;58.32
63204;BME280;49297;43.210;27.914;2023-06-14T06:04:23;100891.59;;;22.15;58.33
63204;BME280;49297;43.210;27.914;2023-06-14T06:06:51;100892.19;;;22.23;57.91
63204;BME280;49297;43.210;27.914;2023-06-14T06:09:16;100901.13;;;22.31;57.90
63204;BME280;49297;43.210;27.914;2023-06-14T06:11:42;100888.47;;;22.38;57.73
63204;BME280;49297;43.210;27.914;2023-06-14T06:14:08;100891.56;;;22.48;58.02
63204;BME280;49297;43.210;27.914;2023-06-14T06:16:34;100897.09;;;22.60;57.70
63204;BME280;49297;43.210;27.914;2023-06-14T06:19:03;100898.34;;;22.64;57.34
63204;BME280;49297;43.210;27.914;2023-06-14T06:21:30;100899.97;;;22.72;57.65
63204;BME280;49297;43.210;27.914;2023-06-14T06:23:57;100897.44;;;22.84;56.88
63204;BME280;49297;43.210;27.914;2023-06-14T06:26:24;100901.13;;;22.96;56.52
63204;BME280;49297;43.210;27.914;2023-06-14T06:28:52;100900.47;;;23.07;56.00
63204;BME280;49297;43.210;27.914;2023-06-14T06:31:18;100908.28;;;23.15;55.29
63204;BME280;49297;43.210;27.914;2023-06-14T06:33:45;100893.31;;;23.26;55.11
63204;BME280;49297;43.210;27.914;2023-06-14T06:36:14;100894.72;;;23.29;55.13
63204;BME280;49297;43.210;27.914;2023-06-14T06:38:53;100893.63;;;23.36;55.16
63204;BME280;49297;43.210;27.914;2023-06-14T06:41:19;100902.34;;;23.38;54.77
63204;BME280;49297;43.210;27.914;2023-06-14T06:43:46;100891.16;;;23.35;54.62
63204;BME280;49297;43.210;27.914;2023-06-14T06:46:12;100895.47;;;23.43;54.77
63204;BME280;49297;43.210;27.914;2023-06-14T06:48:39;100893.13;;;23.53;54.64
63204;BME280;49297;43.210;27.914;2023-06-14T06:51:05;100899.56;;;23.52;54.52
63204;BME280;49297;43.210;27.914;2023-06-14T06:53:31;100891.88;;;23.49;54.49
63204;BME280;49297;43.210;27.914;2023-06-14T06:55:58;100888.59;;;23.47;54.37
63204;BME280;49297;43.210;27.914;2023-06-14T06:58:24;100892.72;;;23.49;54.24
63204;BME280;49297;43.210;27.914;2023-06-14T07:00:51;100895.81;;;23.53;53.77
63204;BME280;49297;43.210;27.914;2023-06-14T07:03:17;100894.38;;;23.50;52.80
63204;BME280;49297;43.210;27.914;2023-06-14T07:05:43;100885.88;;;23.47;52.07
63204;BME280;49297;43.210;27.914;2023-06-14T07:08:09;100892.09;;;23.47;50.91
63204;BME280;49297;43.210;27.914;2023-06-14T07:10:37;100886.28;;;23.50;51.24
63204;BME280;49297;43.210;27.914;2023-06-14T07:13:03;100888.53;;;23.53;50.63
63204;BME280;49297;43.210;27.914;2023-06-14T07:15:29;100895.75;;;23.60;50.58
63204;BME280;49297;43.210;27.914;2023-06-14T07:17:55;100889.91;;;23.63;50.61
63204;BME280;49297;43.210;27.914;2023-06-14T07:20:25;100883.88;;;23.67;50.30
63204;BME280;49297;43.210;27.914;2023-06-14T07:22:51;100888.97;;;23.75;50.03
63204;BME280;49297;43.210;27.914;2023-06-14T07:25:17;100887.94;;;23.76;50.05
63204;BME280;49297;43.210;27.914;2023-06-14T07:27:46;100889.13;;;23.87;49.62
63204;BME280;49297;43.210;27.914;2023-06-14T07:30:12;100887.75;;;24.03;48.91
63204;BME280;49297;43.210;27.914;2023-06-14T07:32:38;100887.97;;;24.20;48.20
63204;BME280;49297;43.210;27.914;2023-06-14T07:35:04;100884.16;;;24.28;48.15
63204;BME280;49297;43.210;27.914;2023-06-14T07:37:36;100891.91;;;24.24;47.23
63204;BME280;49297;43.210;27.914;2023-06-14T07:40:04;100893.16;;;24.22;47.60
63204;BME280;49297;43.210;27.914;2023-06-14T07:42:34;100888.34;;;24.24;47.33
63204;BME280;49297;43.210;27.914;2023-06-14T07:45:03;100885.53;;;24.37;47.81
63204;BME280;49297;43.210;27.914;2023-06-14T07:47:30;100884.50;;;24.57;47.44
63204;BME280;49297;43.210;27.914;2023-06-14T07:49:57;100876.50;;;24.80;46.85
63204;BME280;49297;43.210;27.914;2023-06-14T07:52:23;100884.94;;;25.02;46.60
63204;BME280;49297;43.210;27.914;2023-06-14T07:54:49;100881.47;;;25.14;45.93
63204;BME280;49297;43.210;27.914;2023-06-14T07:57:16;100887.63;;;25.21;44.90
63204;BME280;49297;43.210;27.914;2023-06-14T07:59:43;100897.59;;;25.20;44.73
63204;BME280;49297;43.210;27.914;2023-06-14T08:02:09;100881.84;;;25.17;45.49
63204;BME280;49297;43.210;27.914;2023-06-14T08:04:34;100890.50;;;25.07;45.35
63204;BME280;49297;43.210;27.914;2023-06-14T08:07:01;100889.16;;;24.98;45.62
63204;BME280;49297;43.210;27.914;2023-06-14T08:09:27;100893.22;;;25.07;46.12
63204;BME280;49297;43.210;27.914;2023-06-14T08:11:55;100893.94;;;25.15;45.74
63204;BME280;49297;43.210;27.914;2023-06-14T08:14:21;100893.25;;;25.19;45.72
63204;BME280;49297;43.210;27.914;2023-06-14T08:16:47;100894.53;;;25.35;45.72
63204;BME280;49297;43.210;27.914;2023-06-14T08:19:13;100890.69;;;25.55;45.50
63204;BME280;49297;43.210;27.914;2023-06-14T08:21:40;100889.53;;;25.74;44.56
63204;BME280;49297;43.210;27.914;2023-06-14T08:24:06;100890.09;;;25.88;44.32
63204;BME280;49297;43.210;27.914;2023-06-14T08:26:31;100894.28;;;26.02;43.56
63204;BME280;49297;43.210;27.914;2023-06-14T08:28:58;100900.03;;;26.18;43.53
63204;BME280;49297;43.210;27.914;2023-06-14T08:31:24;100891.56;;;26.14;43.65
63204;BME280;49297;43.210;27.914;2023-06-14T08:33:51;100901.72;;;26.07;43.88
63204;BME280;49297;43.210;27.914;2023-06-14T08:36:16;100890.38;;;26.10;44.06
63204;BME280;49297;43.210;27.914;2023-06-14T08:38:45;100893.91;;;26.11;43.52
63204;BME280;49297;43.210;27.914;2023-06-14T08:41:12;100890.72;;;26.02;44.10
63204;BME280;49297;43.210;27.914;2023-06-14T08:43:42;100893.44;;;26.02;44.30
63204;BME280;49297;43.210;27.914;2023-06-14T08:46:08;100898.66;;;26.15;44.27
63204;BME280;49297;43.210;27.914;2023-06-14T08:48:39;100902.88;;;26.23;43.64
63204;BME280;49297;43.210;27.914;2023-06-14T08:51:05;100896.13;;;26.26;43.38
63204;BME280;49297;43.210;27.914;2023-06-14T08:53:32;100896.97;;;26.26;43.49
63204;BME280;49297;43.210;27.914;2023-06-14T08:56:01;100899.81;;;26.31;43.87
63204;BME280;49297;43.210;27.914;2023-06-14T08:58:28;100885.88;;;26.39;45.45
63204;BME280;49297;43.210;27.914;2023-06-14T09:01:01;100885.63;;;26.53;43.87
63204;BME280;49297;43.210;27.914;2023-06-14T09:03:28;100876.06;;;26.62;43.19
63204;BME280;49297;43.210;27.914;2023-06-14T09:06:00;100886.19;;;26.55;43.54
63204;BME280;49297;43.210;27.914;2023-06-14T09:08:30;100887.63;;;26.46;44.64
63204;BME280;49297;43.210;27.914;2023-06-14T09:10:57;100882.34;;;26.39;46.65
63204;BME280;49297;43.210;27.914;2023-06-14T09:13:26;100879.72;;;26.44;47.24
63204;BME280;49297;43.210;27.914;2023-06-14T09:15:52;100880.31;;;26.34;46.94
63204;BME280;49297;43.210;27.914;2023-06-14T09:18:19;100879.16;;;26.18;47.53
63204;BME280;49297;43.210;27.914;2023-06-14T09:20:48;100869.50;;;26.11;47.58
63204;BME280;49297;43.210;27.914;2023-06-14T09:23:20;100871.28;;;26.05;47.96
63204;BME280;49297;43.210;27.914;2023-06-14T09:25:50;100867.59;;;26.11;47.77
63204;BME280;49297;43.210;27.914;2023-06-14T09:28:17;100866.78;;;26.23;47.82
63204;BME280;49297;43.210;27.914;2023-06-14T09:30:44;100866.66;;;26.29;48.27
63204;BME280;49297;43.210;27.914;2023-06-14T09:33:16;100874.19;;;26.27;47.71
63204;BME280;49297;43.210;27.914;2023-06-14T09:35:51;100879.66;;;26.15;48.91
63204;BME280;49297;43.210;27.914;2023-06-14T09:38:17;100881.91;;;26.07;49.00
63204;BME280;49297;43.210;27.914;2023-06-14T09:40:43;100883.53;;;26.08;48.53
63204;BME280;49297;43.210;27.914;2023-06-14T09:43:09;100876.72;;;26.05;48.35
63204;BME280;49297;43.210;27.914;2023-06-14T09:45:35;100877.88;;;26.09;48.46
63204;BME280;49297;43.210;27.914;2023-06-14T09:48:02;100875.41;;;26.08;49.15
63204;BME280;49297;43.210;27.914;2023-06-14T09:50:28;100867.59;;;26.23;48.46
63204;BME280;49297;43.210;27.914;2023-06-14T09:53:01;100864.00;;;26.58;48.34
63204;BME280;49297;43.210;27.914;2023-06-14T09:55:30;100858.47;;;26.93;47.06
63204;BME280;49297;43.210;27.914;2023-06-14T09:57:57;100874.47;;;27.35;45.78
63204;BME280;49297;43.210;27.914;2023-06-14T10:00:27;100866.09;;;27.54;44.85
63204;BME280;49297;43.210;27.914;2023-06-14T10:03:00;100865.91;;;27.44;44.42
63204;BME280;49297;43.210;27.914;2023-06-14T10:05:30;100874.03;;;27.27;45.18
63204;BME280;49297;43.210;27.914;2023-06-14T10:08:00;100869.44;;;27.44;44.76
63204;BME280;49297;43.210;27.914;2023-06-14T10:10:31;100875.44;;;27.80;43.95
63204;BME280;49297;43.210;27.914;2023-06-14T10:12:57;100867.66;;;28.23;43.48
63204;BME280;49297;43.210;27.914;2023-06-14T10:15:52;100865.19;;;28.21;43.31
63204;BME280;49297;43.210;27.914;2023-06-14T10:18:28;100868.91;;;28.15;43.07
63204;BME280;49297;43.210;27.914;2023-06-14T10:21:41;100867.31;;;28.36;43.20
63204;BME280;49297;43.210;27.914;2023-06-14T10:24:12;100866.28;;;28.42;42.64
63204;BME280;49297;43.210;27.914;2023-06-14T10:26:53;100863.56;;;28.86;41.53
63204;BME280;49297;43.210;27.914;2023-06-14T10:29:19;100868.59;;;29.00;41.38
63204;BME280;49297;43.210;27.914;2023-06-14T10:31:55;100873.59;;;29.35;41.24
63204;BME280;49297;43.210;27.914;2023-06-14T10:34:25;100876.00;;;30.02;39.53
63204;BME280;49297;43.210;27.914;2023-06-14T10:37:11;100884.44;;;30.43;39.39
63204;BME280;49297;43.210;27.914;2023-06-14T10:39:45;100875.03;;;30.86;38.31
63204;BME280;49297;43.210;27.914;2023-06-14T10:42:12;100888.69;;;30.81;37.75
63204;BME280;49297;43.210;27.914;2023-06-14T10:44:40;100882.94;;;30.25;39.25
63204;BME280;49297;43.210;27.914;2023-06-14T10:47:22;100882.97;;;29.77;39.77
63204;BME280;49297;43.210;27.914;2023-06-14T10:49:55;100882.41;;;29.15;41.30
63204;BME280;49297;43.210;27.914;2023-06-14T10:52:26;100888.66;;;28.66;41.80
63204;BME280;49297;43.210;27.914;2023-06-14T10:55:17;100891.47;;;28.33;41.71
63204;BME280;49297;43.210;27.914;2023-06-14T10:57:48;100885.50;;;28.14;42.37
63204;BME280;49297;43.210;27.914;2023-06-14T11:00:19;100888.22;;;27.97;43.50
63204;BME280;49297;43.210;27.914;2023-06-14T11:05:52;100886.09;;;27.48;43.92
63204;BME280;49297;43.210;27.914;2023-06-14T11:11:14;100893.91;;;27.44;44.96
63204;BME280;49297;43.210;27.914;2023-06-14T11:13:44;100887.41;;;27.45;44.88
63204;BME280;49297;43.210;27.914;2023-06-14T11:16:15;100879.41;;;27.56;44.91
63204;BME280;49297;43.210;27.914;2023-06-14T11:18:44;100882.94;;;27.73;45.10
63204;BME280;49297;43.210;27.914;2023-06-14T11:21:11;100883.78;;;27.73;45.03
63204;BME280;49297;43.210;27.914;2023-06-14T11:23:37;100890.03;;;27.57;45.36
63204;BME280;49297;43.210;27.914;2023-06-14T11:26:03;100891.53;;;27.48;46.02
63204;BME280;49297;43.210;27.914;2023-06-14T11:28:44;100897.09;;;27.41;46.30
63204;BME280;49297;43.210;27.914;2023-06-14T11:31:11;100897.53;;;27.33;46.94
63204;BME280;49297;43.210;27.914;2023-06-14T11:33:37;100891.75;;;27.29;47.19
63204;BME280;49297;43.210;27.914;2023-06-14T11:36:03;100892.09;;;27.33;47.21
63204;BME280;49297;43.210;27.914;2023-06-14T11:38:36;100896.78;;;27.38;47.25
63204;BME280;49297;43.210;27.914;2023-06-14T11:41:03;100903.13;;;27.43;47.25
63204;BME280;49297;43.210;27.914;2023-06-14T11:43:28;100904.28;;;27.47;47.45
63204;BME280;49297;43.210;27.914;2023-06-14T11:45:57;100902.16;;;27.49;47.58
63204;BME280;49297;43.210;27.914;2023-06-14T11:48:39;100898.69;;;27.37;47.49
63204;BME280;49297;43.210;27.914;2023-06-14T11:51:06;100904.97;;;27.26;47.99
63204;BME280;49297;43.210;27.914;2023-06-14T11:53:32;100905.03;;;27.14;48.00
63204;BME280;49297;43.210;27.914;2023-06-14T11:55:59;100901.19;;;26.98;49.02
63204;BME280;49297;43.210;27.914;2023-06-14T11:58:26;100895.66;;;26.93;49.42
63204;BME280;49297;43.210;27.914;2023-06-14T12:00:53;100894.03;;;26.92;49.65
63204;BME280;49297;43.210;27.914;2023-06-14T12:03:23;100897.81;;;26.79;49.86
63204;BME280;49297;43.210;27.914;2023-06-14T12:06:02;100901.66;;;26.66;49.96
63204;BME280;49297;43.210;27.914;2023-06-14T12:08:38;100894.34;;;26.67;49.87
63204;BME280;49297;43.210;27.914;2023-06-14T12:11:13;100895.84;;;26.74;49.86
63204;BME280;49297;43.210;27.914;2023-06-14T12:13:41;100893.47;;;26.78;49.53
63204;BME280;49297;43.210;27.914;2023-06-14T12:16:08;100889.94;;;26.77;49.09
63204;BME280;49297;43.210;27.914;2023-06-14T12:18:36;100893.88;;;26.58;49.17
63204;BME280;49297;43.210;27.914;2023-06-14T12:21:06;100891.84;;;26.53;49.58
63204;BME280;49297;43.210;27.914;2023-06-14T12:23:46;100899.66;;;26.50;51.78
63204;BME280;49297;43.210;27.914;2023-06-14T12:26:17;100907.09;;;26.43;54.06
63204;BME280;49297;43.210;27.914;2023-06-14T12:28:47;100901.56;;;26.37;55.47
63204;BME280;49297;43.210;27.914;2023-06-14T12:31:15;100896.94;;;26.38;55.94
63204;BME280;49297;43.210;27.914;2023-06-14T12:33:42;100896.00;;;26.44;56.56
63204;BME280;49297;43.210;27.914;2023-06-14T12:36:10;100894.00;;;26.51;56.05
63204;BME280;49297;43.210;27.914;2023-06-14T12:38:38;100895.63;;;26.76;55.57
63204;BME280;49297;43.210;27.914;2023-06-14T12:41:04;100893.59;;;26.83;55.18
63204;BME280;49297;43.210;27.914;2023-06-14T12:43:30;100891.25;;;26.75;55.20
63204;BME280;49297;43.210;27.914;2023-06-14T12:45:56;100893.41;;;26.49;55.69
63204;BME280;49297;43.210;27.914;2023-06-14T12:48:22;100901.78;;;26.36;56.12
63204;BME280;49297;43.210;27.914;2023-06-14T12:50:50;100895.09;;;26.27;56.27
63204;BME280;49297;43.210;27.914;2023-06-14T12:53:15;100893.69;;;26.12;56.78